Time;durP1;ratioP1;P1;durP2;ratioP2;P2;SDS_P1;SDS_P2;PMS_P1;PMS_P2;Temp;Humidity;BMP_temperature;BMP_pressure;BME280_temperature;BME280_humidity;BME280_pressure;Samples;Min_cycle;Max_cycle;Signal;HPM_P1;HPM_P2
2022/06/19 00:00:35;;;;;;;12.48;3.35;;;25.30;61.90;;;;;;4977955;28;20041;-71
2022/06/19 00:03:03;;;;;;;10.30;2.78;;;25.30;61.90;;;;;;4976440;28;20034;-71
2022/06/19 00:05:30;;;;;;;7.47;3.03;;;25.20;62.00;;;;;;4992244;28;20026;-72
2022/06/19 00:07:56;;;;;;;8.98;2.63;;;25.20;62.10;;;;;;4991400;28;20376;-70
2022/06/19 00:10:22;;;;;;;9.75;2.80;;;25.20;62.10;;;;;;4989957;28;20629;-71
2022/06/19 00:12:47;;;;;;;8.23;3.30;;;25.20;62.30;;;;;;4973515;28;20030;-72
2022/06/19 00:15:13;;;;;;;11.60;2.88;;;25.10;62.30;;;;;;4992309;28;20031;-71
2022/06/19 00:17:39;;;;;;;13.00;3.13;;;25.10;62.20;;;;;;4995143;28;20026;-70
2022/06/19 00:20:06;;;;;;;9.68;3.80;;;25.10;62.20;;;;;;4993430;28;20030;-70
2022/06/19 00:22:32;;;;;;;17.23;3.95;;;25.00;62.20;;;;;;4992983;28;20168;-71
2022/06/19 00:24:58;;;;;;;12.73;3.30;;;25.00;62.20;;;;;;4988090;28;20105;-71
2022/06/19 00:27:25;;;;;;;12.43;4.00;;;24.90;62.10;;;;;;4995246;28;20066;-71
2022/06/19 00:29:51;;;;;;;20.83;3.97;;;25.00;62.10;;;;;;4991170;28;20022;-71
2022/06/19 00:32:18;;;;;;;19.02;3.67;;;24.90;62.00;;;;;;4972089;28;20455;-71
2022/06/19 00:34:44;;;;;;;13.10;3.72;;;24.90;62.00;;;;;;4989579;28;20117;-71
2022/06/19 00:37:09;;;;;;;9.45;3.45;;;24.90;61.90;;;;;;4990832;28;20105;-70
2022/06/19 00:39:39;;;;;;;10.40;3.00;;;24.90;62.10;;;;;;4991086;28;20038;-70
2022/06/19 00:42:10;;;;;;;12.43;3.22;;;24.80;62.00;;;;;;4992687;28;20131;-72
2022/06/19 00:44:35;;;;;;;21.00;4.28;;;24.90;61.90;;;;;;4992570;28;20089;-71
2022/06/19 00:47:08;;;;;;;14.55;3.33;;;24.80;61.80;;;;;;4991103;28;20542;-71
2022/06/19 00:49:57;;;;;;;10.20;2.90;;;24.80;61.60;;;;;;4993417;28;20022;-71
2022/06/19 00:52:29;;;;;;;24.67;3.70;;;24.80;61.40;;;;;;4975275;28;20026;-71
2022/06/19 00:55:04;;;;;;;11.60;3.50;;;24.80;61.40;;;;;;4990129;28;20023;-71
2022/06/19 00:57:34;;;;;;;15.35;3.55;;;24.80;61.40;;;;;;4993229;28;20045;-71
2022/06/19 01:00:10;;;;;;;9.07;2.92;;;24.80;61.40;;;;;;4993434;28;20432;-71
2022/06/19 01:02:39;;;;;;;13.73;3.42;;;24.80;61.50;;;;;;4973837;28;20117;-71
2022/06/19 01:05:06;;;;;;;12.75;3.58;;;24.70;61.60;;;;;;4977979;28;20615;-71
2022/06/19 01:07:31;;;;;;;8.23;2.83;;;24.60;61.70;;;;;;4992875;28;20026;-71
2022/06/19 01:09:57;;;;;;;9.75;3.47;;;24.60;61.80;;;;;;4989680;28;20108;-71
2022/06/19 01:12:24;;;;;;;17.42;3.35;;;24.60;61.90;;;;;;4998153;28;20030;-70
2022/06/19 01:14:54;;;;;;;10.48;3.35;;;24.60;62.10;;;;;;4988899;28;20510;-71
2022/06/19 01:17:20;;;;;;;13.85;2.78;;;24.50;61.80;;;;;;4989254;28;20018;-71
2022/06/19 01:19:46;;;;;;;12.70;3.42;;;24.60;61.80;;;;;;4973758;28;20375;-70
2022/06/19 01:22:39;;;;;;;12.48;2.90;;;24.50;61.80;;;;;;4989073;28;20463;-71
2022/06/19 01:25:13;;;;;;;14.35;2.83;;;24.50;61.60;;;;;;4973540;28;20027;-71
2022/06/19 01:30:48;;;;;;;11.77;3.70;;;24.50;62.20;;;;;;4978880;28;20038;-71
2022/06/19 01:33:31;;;;;;;8.52;2.95;;;24.40;63.10;;;;;;4996391;28;20027;-71
2022/06/19 01:35:58;;;;;;;15.43;3.80;;;24.40;63.30;;;;;;4989025;28;20027;-71
2022/06/19 01:38:26;;;;;;;15.48;3.28;;;24.30;63.50;;;;;;4989393;28;20053;-71
2022/06/19 01:40:55;;;;;;;12.82;3.35;;;24.30;64.30;;;;;;4987257;28;20089;-71
2022/06/19 01:43:22;;;;;;;11.57;3.33;;;24.20;64.40;;;;;;4990215;28;20057;-71
2022/06/19 01:45:56;;;;;;;11.80;3.70;;;24.10;63.90;;;;;;4986194;28;20475;-71
2022/06/19 01:48:27;;;;;;;13.77;3.78;;;24.10;63.80;;;;;;4994321;28;20026;-71
2022/06/19 01:50:55;;;;;;;15.68;3.53;;;24.00;64.00;;;;;;4974777;28;20034;-71
2022/06/19 01:53:24;;;;;;;12.13;3.00;;;24.00;64.90;;;;;;4994851;28;20439;-71
2022/06/19 01:55:51;;;;;;;12.50;3.40;;;23.90;64.50;;;;;;4990950;28;20491;-71
2022/06/19 01:58:19;;;;;;;12.70;3.28;;;23.90;64.90;;;;;;4989746;28;20022;-71
2022/06/19 02:00:47;;;;;;;10.18;3.60;;;23.80;64.80;;;;;;4990728;28;20494;-71
2022/06/19 02:03:30;;;;;;;17.77;3.60;;;23.80;65.10;;;;;;4994627;28;20480;-71
2022/06/19 02:05:58;;;;;;;13.38;3.47;;;23.70;65.70;;;;;;4984006;28;20035;-71
2022/06/19 02:08:25;;;;;;;14.77;3.83;;;23.60;65.30;;;;;;4989258;28;20029;-70
2022/06/19 02:10:51;;;;;;;16.75;3.28;;;23.60;65.30;;;;;;4988014;28;20026;-71
2022/06/19 02:13:20;;;;;;;12.30;3.38;;;23.60;65.10;;;;;;4997227;28;20041;-71
2022/06/19 02:15:49;;;;;;;17.20;3.63;;;23.60;65.70;;;;;;4988779;28;20124;-70
2022/06/19 02:18:23;;;;;;;12.88;3.50;;;23.60;65.20;;;;;;4991860;28;20034;-71
2022/06/19 02:20:51;;;;;;;23.05;4.30;;;23.60;65.30;;;;;;4988574;28;20023;-71
2022/06/19 02:23:20;;;;;;;14.25;3.67;;;23.60;65.90;;;;;;4988000;28;20049;-71
2022/06/19 02:25:47;;;;;;;11.40;3.38;;;23.50;65.40;;;;;;4987476;28;20451;-71
2022/06/19 02:28:13;;;;;;;12.27;3.25;;;23.50;65.80;;;;;;4975692;28;20440;-71
2022/06/19 02:30:40;;;;;;;15.15;3.42;;;23.50;66.20;;;;;;4995364;28;20109;-71
2022/06/19 02:33:07;;;;;;;12.30;3.38;;;23.40;66.50;;;;;;4994370;28;20483;-71
2022/06/19 02:35:33;;;;;;;13.75;4.03;;;23.30;66.40;;;;;;4985029;28;20031;-70
2022/06/19 02:37:58;;;;;;;9.88;3.25;;;23.30;66.40;;;;;;4975243;28;20052;-70
2022/06/19 02:40:33;;;;;;;11.68;3.42;;;23.30;66.30;;;;;;4989449;28;20031;-71
2022/06/19 02:42:58;;;;;;;12.30;3.45;;;23.30;66.30;;;;;;4992977;28;20041;-70
2022/06/19 02:45:27;;;;;;;11.13;3.42;;;23.30;66.40;;;;;;4994748;28;20031;-71
2022/06/19 02:47:56;;;;;;;13.60;4.10;;;23.30;67.20;;;;;;4997409;28;20034;-71
2022/06/19 02:50:26;;;;;;;15.43;3.33;;;23.20;66.80;;;;;;4994506;28;20026;-71
2022/06/19 02:52:52;;;;;;;12.80;3.75;;;23.20;66.80;;;;;;4993179;28;20066;-70
2022/06/19 02:55:19;;;;;;;11.75;3.50;;;23.20;67.20;;;;;;4976751;28;20027;-71
2022/06/19 02:57:45;;;;;;;12.13;3.50;;;23.10;67.60;;;;;;4976811;28;20026;-71
2022/06/19 03:00:34;;;;;;;13.65;3.40;;;23.10;68.40;;;;;;4975322;28;20555;-71
2022/06/19 03:03:11;;;;;;;16.55;3.58;;;23.10;68.00;;;;;;4989309;28;20475;-71
2022/06/19 03:05:37;;;;;;;13.18;3.78;;;23.00;68.00;;;;;;4987070;28;20023;-71
2022/06/19 03:08:03;;;;;;;10.75;3.20;;;23.00;68.00;;;;;;4974225;28;20022;-71
2022/06/19 03:10:30;;;;;;;11.85;3.58;;;23.00;68.20;;;;;;4975471;28;20668;-71
2022/06/19 03:12:57;;;;;;;21.83;3.60;;;23.00;68.10;;;;;;4977903;28;20037;-71
2022/06/19 03:15:23;;;;;;;13.02;3.58;;;22.90;68.10;;;;;;4991225;28;20041;-71
2022/06/19 03:17:49;;;;;;;18.10;4.18;;;22.90;68.30;;;;;;4989478;28;20022;-71
2022/06/19 03:20:18;;;;;;;12.40;3.47;;;22.90;68.60;;;;;;4987841;28;20390;-71
2022/06/19 03:22:43;;;;;;;10.93;3.90;;;22.90;68.50;;;;;;4988174;28;20471;-71
2022/06/19 03:25:09;;;;;;;16.98;3.67;;;22.80;69.10;;;;;;4989334;28;20061;-71
2022/06/19 03:27:35;;;;;;;11.52;3.22;;;22.80;69.00;;;;;;4971923;28;20034;-70
2022/06/19 03:30:01;;;;;;;13.98;3.75;;;22.70;69.30;;;;;;4990383;28;20034;-70
2022/06/19 03:32:26;;;;;;;12.02;3.38;;;22.70;69.30;;;;;;4994180;28;20038;-71
2022/06/19 03:34:52;;;;;;;13.10;3.83;;;22.70;69.50;;;;;;4994325;28;20112;-71
2022/06/19 03:37:18;;;;;;;11.48;2.72;;;22.60;69.50;;;;;;4973727;28;20141;-71
2022/06/19 03:39:44;;;;;;;14.50;3.90;;;22.60;69.60;;;;;;4976991;28;20029;-71
2022/06/19 03:42:13;;;;;;;18.00;4.20;;;22.60;70.30;;;;;;4993731;28;20030;-71
2022/06/19 03:44:39;;;;;;;16.30;4.50;;;22.60;71.80;;;;;;4971689;28;20463;-71
2022/06/19 03:47:05;;;;;;;11.88;4.35;;;22.60;73.00;;;;;;4996952;28;20050;-71
2022/06/19 03:49:31;;;;;;;15.60;5.07;;;22.50;73.50;;;;;;4988925;28;20027;-70
2022/06/19 03:51:56;;;;;;;12.68;4.53;;;22.50;74.10;;;;;;4990439;28;20034;-71
2022/06/19 03:54:22;;;;;;;16.95;4.47;;;22.50;74.30;;;;;;4992427;28;20049;-70
2022/06/19 03:56:48;;;;;;;11.48;3.97;;;22.50;74.70;;;;;;4989244;28;20053;-70
2022/06/19 03:59:14;;;;;;;14.88;4.80;;;22.40;75.00;;;;;;4992181;28;20092;-70
2022/06/19 04:01:40;;;;;;;17.30;5.43;;;22.40;75.20;;;;;;4991194;28;20076;-71
2022/06/19 04:04:06;;;;;;;13.07;4.85;;;22.40;75.20;;;;;;4980316;28;20018;-71
2022/06/19 04:06:36;;;;;;;15.82;5.32;;;22.30;75.40;;;;;;4996225;28;20104;-70
2022/06/19 04:09:04;;;;;;;15.13;5.18;;;22.30;75.60;;;;;;4995689;28;20030;-71
2022/06/19 04:11:31;;;;;;;14.68;5.07;;;22.30;75.90;;;;;;4989819;28;20034;-71
2022/06/19 04:13:57;;;;;;;14.75;4.10;;;22.30;76.10;;;;;;4993215;28;20041;-71
2022/06/19 04:16:25;;;;;;;13.02;4.35;;;22.20;76.60;;;;;;4991487;28;20029;-71
2022/06/19 04:18:53;;;;;;;19.65;4.90;;;22.20;76.60;;;;;;5001360;28;20026;-71
2022/06/19 04:21:21;;;;;;;15.57;4.18;;;22.20;76.40;;;;;;4997449;28;20151;-70
2022/06/19 04:23:49;;;;;;;12.00;3.58;;;22.20;76.20;;;;;;4988238;28;20034;-71
2022/06/19 04:26:20;;;;;;;16.23;3.92;;;22.30;76.50;;;;;;4995016;28;20473;-70
2022/06/19 04:28:46;;;;;;;13.57;4.65;;;22.30;76.00;;;;;;4944595;28;20051;-74
2022/06/19 04:31:12;;;;;;;12.85;4.18;;;22.30;76.00;;;;;;4939098;28;20030;-74
2022/06/19 04:33:38;;;;;;;17.63;4.60;;;22.40;75.70;;;;;;4933027;28;20027;-75
2022/06/19 04:36:11;;;;;;;13.80;4.03;;;22.50;75.30;;;;;;4935250;29;20063;-75
2022/06/19 04:38:41;;;;;;;16.23;4.65;;;22.60;75.10;;;;;;4926285;29;20039;-74
2022/06/19 04:41:15;;;;;;;18.17;5.63;;;22.60;75.10;;;;;;4928290;29;20132;-74
2022/06/19 04:43:41;;;;;;;15.32;4.28;;;22.70;75.30;;;;;;4932944;29;20027;-75
2022/06/19 04:46:07;;;;;;;13.90;5.45;;;22.80;75.60;;;;;;4929263;29;20820;-75
2022/06/19 04:48:33;;;;;;;17.08;5.15;;;22.80;75.40;;;;;;4940372;29;20032;-75
2022/06/19 04:50:59;;;;;;;19.02;5.68;;;22.90;75.40;;;;;;4931035;29;20038;-75
2022/06/19 04:53:25;;;;;;;21.75;5.25;;;22.90;75.30;;;;;;4934760;29;20928;-75
2022/06/19 04:55:51;;;;;;;16.90;4.30;;;23.00;75.10;;;;;;4911773;29;20075;-75
2022/06/19 04:58:18;;;;;;;10.75;3.53;;;23.10;75.10;;;;;;4932745;29;20075;-74
2022/06/19 05:00:43;;;;;;;12.02;3.80;;;23.20;74.70;;;;;;4936971;29;20030;-74
2022/06/19 05:03:09;;;;;;;20.00;4.97;;;23.30;74.70;;;;;;4935502;29;20015;-75
2022/06/19 05:05:35;;;;;;;18.27;5.43;;;23.40;74.40;;;;;;4932317;29;20105;-75
2022/06/19 05:08:00;;;;;;;15.55;3.72;;;23.50;74.40;;;;;;4931600;29;20039;-75
2022/06/19 05:10:26;;;;;;;9.57;3.70;;;23.60;74.10;;;;;;4933676;29;20441;-75
2022/06/19 05:12:56;;;;;;;11.88;4.20;;;23.70;73.40;;;;;;4934835;29;20400;-76
2022/06/19 05:15:22;;;;;;;17.13;4.55;;;23.90;72.90;;;;;;4934916;29;21283;-75
2022/06/19 05:17:47;;;;;;;18.55;4.68;;;23.90;72.20;;;;;;4920662;29;20035;-75
2022/06/19 05:20:13;;;;;;;27.00;4.47;;;24.10;72.10;;;;;;4930804;29;20031;-75
2022/06/19 05:22:39;;;;;;;18.50;4.95;;;24.10;71.90;;;;;;4931898;29;20039;-76
2022/06/19 05:25:08;;;;;;;14.10;4.47;;;24.20;71.80;;;;;;4932911;29;20425;-76
2022/06/19 05:27:36;;;;;;;17.80;4.70;;;24.30;71.40;;;;;;4931704;29;20035;-76
2022/06/19 05:30:04;;;;;;;15.60;3.83;;;24.50;70.90;;;;;;4932268;29;20039;-76
2022/06/19 05:32:29;;;;;;;15.32;4.15;;;24.60;70.70;;;;;;4932866;29;20125;-76
2022/06/19 05:34:55;;;;;;;11.35;4.20;;;24.70;70.50;;;;;;4937523;29;20470;-75
2022/06/19 05:37:21;;;;;;;11.50;3.97;;;24.90;70.40;;;;;;4931991;29;20036;-75
2022/06/19 05:39:46;;;;;;;19.55;4.53;;;25.00;70.20;;;;;;4931604;29;20035;-75
2022/06/19 05:42:12;;;;;;;9.48;3.70;;;25.10;70.00;;;;;;4931053;29;20024;-75
2022/06/19 05:44:37;;;;;;;19.77;4.45;;;25.30;69.70;;;;;;4930284;29;20031;-76
2022/06/19 05:47:04;;;;;;;11.93;3.53;;;25.40;69.40;;;;;;4933001;29;20024;-75
2022/06/19 05:49:32;;;;;;;16.55;4.10;;;25.50;69.30;;;;;;4912923;29;20043;-75
2022/06/19 05:51:59;;;;;;;15.27;3.85;;;25.70;69.30;;;;;;4933771;29;20047;-74
2022/06/19 05:54:26;;;;;;;17.83;4.43;;;25.70;69.30;;;;;;4930106;29;20035;-75
2022/06/19 05:56:52;;;;;;;13.75;3.70;;;25.90;69.50;;;;;;4925223;29;20058;-76
2022/06/19 05:59:18;;;;;;;15.20;4.28;;;26.10;69.50;;;;;;4930829;29;20508;-75
2022/06/19 06:01:43;;;;;;;16.63;4.72;;;26.20;69.30;;;;;;4930844;29;20027;-76
2022/06/19 06:04:09;;;;;;;23.77;4.75;;;26.30;69.40;;;;;;4934349;29;20020;-76
2022/06/19 06:06:35;;;;;;;16.65;5.00;;;26.30;69.20;;;;;;4933570;29;20039;-76
2022/06/19 06:09:00;;;;;;;11.93;4.55;;;26.40;69.00;;;;;;4929224;29;20242;-76
2022/06/19 06:11:26;;;;;;;13.32;4.68;;;26.40;68.80;;;;;;4921328;29;20507;-76
2022/06/19 06:13:52;;;;;;;16.85;4.88;;;26.50;68.90;;;;;;4932908;29;20043;-76
2022/06/19 06:16:20;;;;;;;13.85;4.80;;;26.50;69.10;;;;;;4917466;29;20098;-76
2022/06/19 06:18:46;;;;;;;15.35;4.85;;;26.50;69.30;;;;;;4931349;29;20082;-77
2022/06/19 06:21:16;;;;;;;12.43;4.45;;;26.60;69.20;;;;;;4913051;29;20035;-75
2022/06/19 06:23:42;;;;;;;14.55;4.07;;;26.60;69.10;;;;;;4928801;29;20122;-76
2022/06/19 06:26:11;;;;;;;11.35;4.03;;;26.60;69.00;;;;;;4929676;29;20054;-76
2022/06/19 06:28:38;;;;;;;14.07;4.63;;;26.70;69.10;;;;;;4927500;29;20028;-75
2022/06/19 06:31:04;;;;;;;14.23;4.28;;;26.70;68.70;;;;;;4931482;29;20856;-76
2022/06/19 06:33:30;;;;;;;11.48;3.92;;;26.80;68.70;;;;;;4931579;29;20126;-76
2022/06/19 06:35:57;;;;;;;11.93;4.30;;;26.80;68.70;;;;;;4924706;29;20100;-75
2022/06/19 06:38:23;;;;;;;21.55;4.63;;;26.80;68.80;;;;;;4920434;29;20031;-76
2022/06/19 06:40:50;;;;;;;11.63;4.60;;;26.80;68.90;;;;;;4929920;29;20042;-76
2022/06/19 06:43:16;;;;;;;11.93;4.18;;;26.90;68.80;;;;;;4931590;29;20032;-70
2022/06/19 06:45:42;;;;;;;16.35;4.43;;;27.00;68.90;;;;;;4922299;29;20432;-71
2022/06/19 06:48:08;;;;;;;10.90;4.30;;;26.90;68.80;;;;;;4926423;29;20138;-71
2022/06/19 06:50:34;;;;;;;15.25;4.63;;;27.00;68.80;;;;;;4934639;29;20027;-71
2022/06/19 06:52:59;;;;;;;13.80;4.35;;;27.00;68.80;;;;;;4927350;29;20074;-71
2022/06/19 06:55:25;;;;;;;14.25;4.90;;;27.10;68.80;;;;;;4935188;29;20079;-70
2022/06/19 06:57:51;;;;;;;14.68;4.70;;;27.10;68.40;;;;;;4932386;29;20036;-70
2022/06/19 07:00:21;;;;;;;14.65;4.50;;;27.10;68.30;;;;;;4932126;29;20400;-75
2022/06/19 07:02:48;;;;;;;13.25;4.45;;;27.20;68.30;;;;;;4938370;29;20035;-75
2022/06/19 07:05:14;;;;;;;10.82;4.57;;;27.20;67.90;;;;;;4917526;29;20115;-76
2022/06/19 07:07:40;;;;;;;13.70;4.50;;;27.30;67.90;;;;;;4927378;29;20028;-77
2022/06/19 07:10:06;;;;;;;18.88;4.78;;;27.30;68.30;;;;;;4934286;29;20032;-74
2022/06/19 07:12:32;;;;;;;18.65;4.32;;;27.30;68.20;;;;;;4933573;29;20035;-75
2022/06/19 07:14:57;;;;;;;12.90;4.65;;;27.30;68.00;;;;;;4932899;29;20086;-75
2022/06/19 07:17:23;;;;;;;16.48;3.85;;;27.30;68.30;;;;;;4932401;29;20064;-75
2022/06/19 07:19:49;;;;;;;12.48;4.35;;;27.40;68.40;;;;;;4934373;29;20035;-76
2022/06/19 07:22:17;;;;;;;16.92;5.45;;;27.40;68.30;;;;;;4935863;29;20110;-75
2022/06/19 07:24:44;;;;;;;22.98;5.55;;;27.50;68.30;;;;;;4936251;29;20035;-75
2022/06/19 07:27:10;;;;;;;14.85;4.18;;;27.50;68.20;;;;;;4913095;29;20028;-75
2022/06/19 07:29:41;;;;;;;17.40;5.53;;;27.50;68.10;;;;;;4932593;29;20088;-76
2022/06/19 07:32:13;;;;;;;26.67;6.03;;;27.60;68.00;;;;;;4917716;29;20031;-76
2022/06/19 07:34:41;;;;;;;17.13;5.47;;;27.60;67.90;;;;;;4931711;29;20032;-76
2022/06/19 07:37:07;;;;;;;10.77;4.70;;;27.60;68.20;;;;;;4930748;29;20060;-76
2022/06/19 07:39:35;;;;;;;14.57;5.75;;;27.70;68.60;;;;;;4921543;29;20118;-75
2022/06/19 07:42:00;;;;;;;15.02;4.88;;;27.80;68.40;;;;;;4924378;29;20031;-76
2022/06/19 07:44:29;;;;;;;17.92;5.75;;;27.80;68.00;;;;;;4932010;29;20385;-75
2022/06/19 07:52:26;;;;;;;18.75;6.05;;;28.10;69.20;;;;;;4934289;29;20059;-75
2022/06/19 07:54:53;;;;;;;17.77;5.60;;;28.20;68.80;;;;;;4935971;29;20115;-75
2022/06/19 07:57:19;;;;;;;14.45;4.78;;;28.30;68.80;;;;;;4935076;29;20057;-75
2022/06/19 07:59:45;;;;;;;15.32;5.10;;;28.30;69.10;;;;;;4931308;29;20043;-74
2022/06/19 08:02:11;;;;;;;13.13;5.88;;;28.40;69.30;;;;;;4928856;29;20650;-74
2022/06/19 08:04:36;;;;;;;15.77;5.93;;;28.50;69.10;;;;;;4932934;29;20036;-76
2022/06/19 08:07:02;;;;;;;12.93;5.00;;;28.60;69.30;;;;;;4912507;28;20075;-75
2022/06/19 08:09:28;;;;;;;13.70;5.70;;;28.80;70.10;;;;;;4928953;29;20019;-75
2022/06/19 08:11:53;;;;;;;11.77;5.60;;;28.90;70.30;;;;;;4934470;28;20114;-74
2022/06/19 08:14:19;;;;;;;16.33;5.72;;;29.00;70.30;;;;;;4931301;29;20078;-75
2022/06/19 08:16:44;;;;;;;19.05;6.47;;;29.10;70.10;;;;;;4923566;29;20531;-75
2022/06/19 08:19:10;;;;;;;17.20;6.45;;;29.30;69.80;;;;;;4933568;29;20027;-74
2022/06/19 08:21:36;;;;;;;12.30;5.78;;;29.40;69.60;;;;;;4929263;29;20038;-74
2022/06/19 08:24:01;;;;;;;13.13;6.38;;;29.60;69.50;;;;;;4932072;29;20485;-75
2022/06/19 08:26:27;;;;;;;17.65;6.18;;;29.70;68.80;;;;;;4935745;29;20115;-75
2022/06/19 08:29:01;;;;;;;17.90;6.35;;;29.80;68.50;;;;;;4932551;29;20481;-75
2022/06/19 08:31:31;;;;;;;14.98;5.18;;;30.00;68.40;;;;;;4935346;29;20373;-75
2022/06/19 08:33:57;;;;;;;15.55;6.05;;;30.00;68.50;;;;;;4937752;29;20484;-75
2022/06/19 08:36:25;;;;;;;14.80;5.90;;;30.10;68.60;;;;;;4943448;28;20035;-75
2022/06/19 08:39:04;;;;;;;12.60;6.47;;;30.10;68.50;;;;;;4927590;28;20034;-74
2022/06/19 08:41:57;;;;;;;12.70;6.35;;;30.10;68.50;;;;;;4941933;28;20028;-75
2022/06/19 08:44:32;;;;;;;14.03;6.20;;;30.20;69.10;;;;;;4931743;29;21076;-75
2022/06/19 08:47:21;;;;;;;13.93;6.18;;;30.20;68.10;;;;;;4921809;29;20289;-75
2022/06/19 08:50:12;;;;;;;15.52;6.45;;;30.20;68.30;;;;;;4926390;29;20035;-76
2022/06/19 08:53:12;;;;;;;21.80;6.70;;;30.20;68.00;;;;;;4949792;28;20493;-76
2022/06/19 08:55:59;;;;;;;11.38;5.78;;;30.30;66.20;;;;;;4931896;29;20114;-74
2022/06/19 08:59:01;;;;;;;21.30;7.40;;;30.30;65.70;;;;;;4927642;29;20024;-74
2022/06/19 09:01:46;;;;;;;19.05;6.78;;;30.30;65.30;;;;;;4933720;29;20031;-75
2022/06/19 09:07:38;;;;;;;14.70;6.82;;;30.50;64.20;;;;;;4933610;29;20111;-75
2022/06/19 09:10:25;;;;;;;16.40;7.00;;;30.60;63.40;;;;;;4944430;28;20492;-74
2022/06/19 09:13:20;;;;;;;14.50;7.63;;;30.70;63.20;;;;;;4944435;28;20154;-75
2022/06/19 09:16:31;;;;;;;14.70;7.50;;;30.90;62.90;;;;;;4938665;28;20043;-75
2022/06/19 09:19:18;;;;;;;17.83;8.15;;;31.00;62.90;;;;;;4949291;28;20080;-75
2022/06/19 09:22:16;;;;;;;15.25;8.15;;;31.10;61.90;;;;;;4926878;29;20031;-75
2022/06/19 09:25:00;;;;;;;15.02;6.90;;;31.20;61.50;;;;;;4925236;29;20028;-75
2022/06/19 09:27:46;;;;;;;17.52;7.72;;;31.30;61.10;;;;;;4931765;29;20058;-75
2022/06/19 09:30:20;;;;;;;17.85;8.60;;;31.50;60.50;;;;;;4929884;29;20034;-75
2022/06/19 09:32:56;;;;;;;18.52;8.70;;;31.50;60.00;;;;;;4932788;29;20068;-75
2022/06/19 09:35:54;;;;;;;17.33;8.95;;;31.60;59.50;;;;;;4937120;28;20046;-75
2022/06/19 09:38:34;;;;;;;18.25;8.35;;;31.70;60.00;;;;;;4921266;29;20047;-74
2022/06/19 09:41:05;;;;;;;10.82;8.30;;;31.70;59.60;;;;;;4929063;29;20131;-75
2022/06/19 09:43:39;;;;;;;12.32;7.90;;;31.80;59.40;;;;;;4929487;29;20496;-74
2022/06/19 09:46:20;;;;;;;19.08;8.07;;;31.90;59.50;;;;;;4929362;29;20031;-75
2022/06/19 09:49:18;;;;;;;16.75;8.45;;;32.00;58.90;;;;;;4927698;29;20111;-75
2022/06/19 09:52:00;;;;;;;16.25;9.30;;;32.00;58.30;;;;;;4926658;29;20034;-75
2022/06/19 09:54:34;;;;;;;16.63;7.80;;;32.00;58.30;;;;;;4929473;29;20032;-75
2022/06/19 09:57:28;;;;;;;19.58;8.70;;;32.10;58.60;;;;;;4930248;29;20027;-75
2022/06/19 10:00:09;;;;;;;;;;;32.10;58.60;;;;;;4921225;29;20440;-75
2022/06/19 10:03:00;;;;;;;14.23;8.07;;;32.20;58.80;;;;;;4929553;29;19963;-75
2022/06/19 10:05:37;;;;;;;14.45;9.50;;;32.20;58.40;;;;;;4942167;28;20463;-75
2022/06/19 10:08:43;;;;;;;14.48;9.02;;;32.20;58.50;;;;;;4929788;29;20035;-75
2022/06/19 10:11:15;;;;;;;18.52;9.70;;;32.20;58.00;;;;;;4929693;29;20146;-74
2022/06/19 10:13:58;;;;;;;17.42;8.85;;;32.20;57.80;;;;;;4929452;29;20441;-75
2022/06/19 10:16:27;;;;;;;17.90;8.48;;;32.20;57.90;;;;;;4939023;28;20388;-75
2022/06/19 10:18:55;;;;;;;15.43;8.88;;;32.30;57.60;;;;;;4925282;29;20485;-74
2022/06/19 10:24:33;;;;;;;18.50;8.75;;;32.40;57.90;;;;;;4930276;29;20097;-75
2022/06/19 10:27:07;;;;;;;10.98;9.15;;;32.40;57.20;;;;;;4957842;23;20812;-73
2022/06/19 10:29:55;;;;;;;14.52;9.63;;;32.50;57.60;;;;;;4988418;28;20037;-73
2022/06/19 10:32:36;;;;;;;13.00;8.77;;;32.50;57.40;;;;;;4985480;28;20030;-73
2022/06/19 10:35:15;;;;;;;14.70;9.35;;;32.60;57.10;;;;;;4987164;28;20038;-73
2022/06/19 10:37:43;;;;;;;15.02;9.50;;;32.70;56.90;;;;;;4989556;28;20052;-74
2022/06/19 10:40:28;;;;;;;17.88;8.85;;;32.70;56.70;;;;;;4989123;28;20026;-73
2022/06/19 10:43:06;;;;;;;22.75;9.32;;;32.80;56.20;;;;;;4991561;28;20027;-74
2022/06/19 10:45:37;;;;;;;16.95;9.35;;;32.80;56.70;;;;;;4994070;28;20465;-73
2022/06/19 10:48:18;;;;;;;25.60;9.80;;;32.80;56.10;;;;;;5003568;28;20109;-73
2022/06/19 10:50:53;;;;;;;14.20;9.32;;;32.90;55.80;;;;;;4994116;28;20023;-73
2022/06/19 10:53:31;;;;;;;16.40;9.98;;;32.90;55.00;;;;;;4991585;28;20402;-73
2022/06/19 10:56:10;;;;;;;15.57;9.05;;;32.90;54.90;;;;;;4993125;28;20034;-73
2022/06/19 10:58:36;;;;;;;17.17;9.50;;;32.90;54.30;;;;;;4987546;28;20037;-73
2022/06/19 11:01:06;;;;;;;20.02;9.20;;;32.90;54.50;;;;;;4993152;28;20587;-74
2022/06/19 11:06:47;;;;;;;16.38;8.98;;;33.00;54.40;;;;;;4991692;28;20423;-73
2022/06/19 11:09:47;;;;;;;10.23;8.90;;;33.10;53.90;;;;;;4992509;28;20030;-74
2022/06/19 11:12:33;;;;;;;23.10;9.45;;;33.20;53.90;;;;;;4994141;28;20039;-73
2022/06/19 11:15:03;;;;;;;14.13;8.52;;;33.20;53.60;;;;;;5010984;28;20050;-73
2022/06/19 11:17:31;;;;;;;16.20;8.73;;;33.20;53.50;;;;;;4992382;28;20038;-73
2022/06/19 11:19:57;;;;;;;14.50;8.57;;;33.20;53.20;;;;;;4991499;28;20068;-72
2022/06/19 11:22:38;;;;;;;17.25;8.95;;;33.20;53.00;;;;;;4995173;28;20034;-72
2022/06/19 11:25:26;;;;;;;20.40;9.05;;;33.20;52.40;;;;;;4986501;28;20026;-72
2022/06/19 11:28:00;;;;;;;15.27;8.88;;;33.40;51.20;;;;;;4992676;28;20118;-72
2022/06/19 11:30:50;;;;;;;20.65;8.63;;;33.40;51.70;;;;;;4987329;28;20030;-73
2022/06/19 11:33:36;;;;;;;14.55;8.15;;;33.40;52.20;;;;;;4992147;28;20046;-74
2022/06/19 11:36:08;;;;;;;15.30;9.02;;;33.50;52.70;;;;;;4987588;28;20084;-74
2022/06/19 11:38:44;;;;;;;11.18;7.97;;;33.60;50.40;;;;;;4990727;28;20030;-74
2022/06/19 11:41:21;;;;;;;17.88;8.75;;;33.60;50.50;;;;;;4988924;28;20368;-74
2022/06/19 11:44:11;;;;;;;19.90;7.93;;;33.70;48.80;;;;;;4991536;28;20086;-74
2022/06/19 11:46:53;;;;;;;16.75;7.85;;;33.70;48.50;;;;;;4990543;28;20041;-74
2022/06/19 11:49:28;;;;;;;19.27;7.63;;;33.70;48.10;;;;;;4988691;28;20036;-74
2022/06/19 11:51:57;;;;;;;13.57;7.85;;;33.70;48.20;;;;;;4989816;28;20037;-74
2022/06/19 11:54:30;;;;;;;14.07;7.50;;;33.80;48.00;;;;;;4988192;28;20069;-74
2022/06/19 11:56:57;;;;;;;16.60;7.18;;;33.80;47.70;;;;;;4992538;28;20042;-74
2022/06/19 11:59:44;;;;;;;14.93;7.15;;;33.80;47.60;;;;;;4985952;28;20050;-74
2022/06/19 12:02:38;;;;;;;18.30;7.60;;;33.80;47.40;;;;;;4999975;28;20030;-75
2022/06/19 12:05:22;;;;;;;17.48;7.28;;;33.80;46.90;;;;;;4983099;28;20029;-74
2022/06/19 12:07:48;;;;;;;13.02;6.80;;;33.70;47.00;;;;;;4984643;28;20030;-76
2022/06/19 12:10:13;;;;;;;10.15;6.30;;;33.80;46.80;;;;;;4981038;28;20023;-75
2022/06/19 12:12:50;;;;;;;14.07;6.22;;;33.80;47.10;;;;;;4980401;28;20070;-76
2022/06/19 12:15:27;;;;;;;17.23;6.45;;;33.80;46.00;;;;;;4978460;28;20042;-75
2022/06/19 12:17:59;;;;;;;12.82;6.50;;;33.80;45.20;;;;;;4979181;28;20030;-76
2022/06/19 12:20:28;;;;;;;11.43;6.07;;;33.80;45.40;;;;;;4981497;28;20479;-77
2022/06/19 12:22:57;;;;;;;14.70;6.28;;;33.90;45.50;;;;;;4987109;28;20379;-76
2022/06/19 12:25:28;;;;;;;13.10;6.45;;;34.00;45.70;;;;;;4988458;28;20054;-75
2022/06/19 12:28:25;;;;;;;14.20;7.00;;;33.90;45.90;;;;;;4981244;28;20038;-74
2022/06/19 12:31:11;;;;;;;11.95;6.85;;;34.00;45.30;;;;;;4979759;28;20113;-74
2022/06/19 12:33:43;;;;;;;16.58;7.13;;;34.00;45.40;;;;;;4986211;28;20117;-73
2022/06/19 12:36:17;;;;;;;13.82;6.25;;;34.00;44.90;;;;;;4980485;28;20045;-74
2022/06/19 12:38:44;;;;;;;11.63;6.10;;;34.00;45.00;;;;;;4977930;28;20038;-73
2022/06/19 12:41:18;;;;;;;15.68;7.22;;;34.00;45.30;;;;;;4982300;28;20534;-73
2022/06/19 12:44:06;;;;;;;15.57;7.68;;;34.00;44.70;;;;;;4980149;28;20522;-74
2022/06/19 12:46:43;;;;;;;14.23;6.85;;;34.00;44.80;;;;;;4977561;28;20026;-73
2022/06/19 12:49:28;;;;;;;12.05;5.90;;;34.10;45.40;;;;;;4980912;28;20063;-73
2022/06/19 12:52:01;;;;;;;16.13;6.10;;;34.00;45.60;;;;;;4980332;28;20038;-73
2022/06/19 12:54:45;;;;;;;15.68;6.18;;;34.00;45.50;;;;;;4980703;28;20033;-73
2022/06/19 12:57:35;;;;;;;14.40;6.50;;;34.00;45.60;;;;;;4985798;28;20398;-73
2022/06/19 13:00:36;;;;;;;15.20;6.03;;;34.00;45.70;;;;;;4974605;28;20033;-74
2022/06/19 13:03:36;;;;;;;15.70;7.22;;;34.00;45.20;;;;;;4986838;28;20027;-74
2022/06/19 13:06:40;;;;;;;15.63;6.72;;;34.10;45.00;;;;;;4979099;28;20102;-74
2022/06/19 13:09:34;;;;;;;13.20;6.38;;;34.10;45.10;;;;;;4979248;28;20097;-73
2022/06/19 13:12:17;;;;;;;11.13;6.07;;;34.20;45.00;;;;;;4990794;28;20030;-73
2022/06/19 13:15:00;;;;;;;15.98;6.93;;;34.20;44.80;;;;;;4982349;28;20125;-73
2022/06/19 13:17:27;;;;;;;17.50;6.30;;;34.30;44.20;;;;;;4982749;28;20077;-74
2022/06/19 13:20:14;;;;;;;12.05;6.00;;;34.30;44.20;;;;;;4984539;28;20058;-74